Irondale, Missouri
Current Conditions -  °F | °C
As of 9:55 PM on Sunday 23 Nov 2014 (Local Time) from KFAM Reporting Station
Overcast Overcast  
Wind Chill: 55°   Ceiling: 600
Heat Index: 55°   Visibility: 10mi
Dew Point: 54°   Wind: 12mph
Humidity: 94%   Direction: 140°SE
Pressure: 29.29"   Gusts: NA
Location:  37.83°N, 90.68°W
Report Text: KFAM 240355Z AUTO 14010KT 10SM BKN006 BKN013 OVC050 13/12 A2929 RMK AO1
Loading
Personal Weather Stations






























Interactive Weather Map New forecast layout! Learn more

10-Day Weather Forecast

Advertisements
Track Severe Weather on mobile